sensor_id;sensor_type;location;lat;lon;timestamp;P1;durP1;ratioP1;P2;durP2;ratioP2
9178;SDS011;4624;48.126;11.546;2023-03-23T00:01:54;3.40;;;1.83;;
9178;SDS011;4624;48.126;11.546;2023-03-23T00:04:21;2.57;;;1.77;;
9178;SDS011;4624;48.126;11.546;2023-03-23T00:06:52;1.10;;;1.00;;
9178;SDS011;4624;48.126;11.546;2023-03-23T00:09:20;4.33;;;1.67;;
9178;SDS011;4624;48.126;11.546;2023-03-23T00:11:49;2.23;;;1.47;;
9178;SDS011;4624;48.126;11.546;2023-03-23T00:14:16;2.43;;;1.17;;
9178;SDS011;4624;48.126;11.546;2023-03-23T00:16:47;2.07;;;1.27;;
9178;SDS011;4624;48.126;11.546;2023-03-23T00:19:16;1.70;;;1.50;;
9178;SDS011;4624;48.126;11.546;2023-03-23T00:21:44;1.87;;;1.37;;
9178;SDS011;4624;48.126;11.546;2023-03-23T00:24:12;4.77;;;1.50;;
9178;SDS011;4624;48.126;11.546;2023-03-23T00:26:43;3.53;;;1.70;;
9178;SDS011;4624;48.126;11.546;2023-03-23T00:29:12;2.63;;;1.57;;
9178;SDS011;4624;48.126;11.546;2023-03-23T00:31:40;1.83;;;1.60;;
9178;SDS011;4624;48.126;11.546;2023-03-23T00:34:11;3.07;;;1.67;;
9178;SDS011;4624;48.126;11.546;2023-03-23T00:36:44;1.73;;;1.40;;
9178;SDS011;4624;48.126;11.546;2023-03-23T00:39:11;4.60;;;1.33;;
9178;SDS011;4624;48.126;11.546;2023-03-23T00:41:42;1.60;;;1.50;;
9178;SDS011;4624;48.126;11.546;2023-03-23T00:44:09;1.40;;;1.17;;
9178;SDS011;4624;48.126;11.546;2023-03-23T00:46:41;1.37;;;1.23;;
9178;SDS011;4624;48.126;11.546;2023-03-23T00:49:09;3.43;;;1.40;;
9178;SDS011;4624;48.126;11.546;2023-03-23T00:51:38;2.33;;;1.47;;
9178;SDS011;4624;48.126;11.546;2023-03-23T00:54:05;1.70;;;1.40;;
9178;SDS011;4624;48.126;11.546;2023-03-23T00:56:32;1.87;;;1.50;;
9178;SDS011;4624;48.126;11.546;2023-03-23T00:59:00;1.00;;;0.90;;
9178;SDS011;4624;48.126;11.546;2023-03-23T01:01:28;1.90;;;1.30;;
9178;SDS011;4624;48.126;11.546;2023-03-23T01:03:55;1.90;;;1.40;;
9178;SDS011;4624;48.126;11.546;2023-03-23T01:06:26;2.17;;;1.30;;
9178;SDS011;4624;48.126;11.546;2023-03-23T01:08:53;3.20;;;1.10;;
9178;SDS011;4624;48.126;11.546;2023-03-23T01:11:21;1.73;;;1.20;;
9178;SDS011;4624;48.126;11.546;2023-03-23T01:13:48;1.13;;;1.03;;
9178;SDS011;4624;48.126;11.546;2023-03-23T01:16:16;1.37;;;0.93;;
9178;SDS011;4624;48.126;11.546;2023-03-23T01:18:43;1.70;;;1.10;;
9178;SDS011;4624;48.126;11.546;2023-03-23T01:21:10;1.50;;;1.13;;
9178;SDS011;4624;48.126;11.546;2023-03-23T01:23:38;1.57;;;0.77;;
9178;SDS011;4624;48.126;11.546;2023-03-23T01:26:06;1.00;;;0.90;;
9178;SDS011;4624;48.126;11.546;2023-03-23T01:28:35;2.60;;;1.07;;
9178;SDS011;4624;48.126;11.546;2023-03-23T01:31:02;2.10;;;1.03;;
9178;SDS011;4624;48.126;11.546;2023-03-23T01:33:31;1.13;;;0.90;;
9178;SDS011;4624;48.126;11.546;2023-03-23T01:36:02;1.67;;;0.90;;
9178;SDS011;4624;48.126;11.546;2023-03-23T01:38:30;1.10;;;1.00;;
9178;SDS011;4624;48.126;11.546;2023-03-23T01:40:57;4.53;;;1.00;;
9178;SDS011;4624;48.126;11.546;2023-03-23T01:43:24;1.00;;;0.90;;
9178;SDS011;4624;48.126;11.546;2023-03-23T01:45:51;2.23;;;0.67;;
9178;SDS011;4624;48.126;11.546;2023-03-23T01:48:18;0.80;;;0.70;;
9178;SDS011;4624;48.126;11.546;2023-03-23T01:50:53;0.73;;;0.73;;
9178;SDS011;4624;48.126;11.546;2023-03-23T01:53:24;1.50;;;0.83;;
9178;SDS011;4624;48.126;11.546;2023-03-23T01:55:55;0.77;;;0.70;;
9178;SDS011;4624;48.126;11.546;2023-03-23T01:58:26;3.33;;;0.93;;
9178;SDS011;4624;48.126;11.546;2023-03-23T02:00:55;1.07;;;0.93;;
9178;SDS011;4624;48.126;11.546;2023-03-23T02:03:25;1.27;;;0.93;;
9178;SDS011;4624;48.126;11.546;2023-03-23T02:05:55;1.33;;;1.10;;
9178;SDS011;4624;48.126;11.546;2023-03-23T02:08:24;2.10;;;0.90;;
9178;SDS011;4624;48.126;11.546;2023-03-23T02:10:54;1.87;;;1.00;;
9178;SDS011;4624;48.126;11.546;2023-03-23T02:13:21;2.17;;;0.90;;
9178;SDS011;4624;48.126;11.546;2023-03-23T02:15:51;1.00;;;0.83;;
9178;SDS011;4624;48.126;11.546;2023-03-23T02:18:28;2.63;;;1.07;;
9178;SDS011;4624;48.126;11.546;2023-03-23T02:21:12;1.10;;;0.90;;
9178;SDS011;4624;48.126;11.546;2023-03-23T02:24:04;1.23;;;0.80;;
9178;SDS011;4624;48.126;11.546;2023-03-23T02:26:47;1.87;;;0.87;;
9178;SDS011;4624;48.126;11.546;2023-03-23T02:32:16;1.23;;;0.80;;
9178;SDS011;4624;48.126;11.546;2023-03-23T02:34:58;2.53;;;1.10;;
9178;SDS011;4624;48.126;11.546;2023-03-23T02:37:29;0.83;;;0.83;;
9178;SDS011;4624;48.126;11.546;2023-03-23T02:40:03;1.53;;;0.90;;
9178;SDS011;4624;48.126;11.546;2023-03-23T02:42:36;1.63;;;1.00;;
9178;SDS011;4624;48.126;11.546;2023-03-23T02:45:06;1.00;;;0.87;;
9178;SDS011;4624;48.126;11.546;2023-03-23T02:47:36;0.90;;;0.90;;
9178;SDS011;4624;48.126;11.546;2023-03-23T02:50:07;1.13;;;1.03;;
9178;SDS011;4624;48.126;11.546;2023-03-23T02:52:36;1.17;;;0.80;;
9178;SDS011;4624;48.126;11.546;2023-03-23T02:55:06;2.40;;;1.00;;
9178;SDS011;4624;48.126;11.546;2023-03-23T02:57:36;3.07;;;1.20;;
9178;SDS011;4624;48.126;11.546;2023-03-23T03:00:04;1.47;;;1.03;;
9178;SDS011;4624;48.126;11.546;2023-03-23T03:02:35;4.43;;;1.20;;
9178;SDS011;4624;48.126;11.546;2023-03-23T03:05:08;1.43;;;1.03;;
9178;SDS011;4624;48.126;11.546;2023-03-23T03:10:41;3.00;;;1.67;;
9178;SDS011;4624;48.126;11.546;2023-03-23T03:13:17;5.27;;;1.43;;
9178;SDS011;4624;48.126;11.546;2023-03-23T03:15:57;3.57;;;1.40;;
9178;SDS011;4624;48.126;11.546;2023-03-23T03:18:29;3.43;;;1.40;;
9178;SDS011;4624;48.126;11.546;2023-03-23T03:21:02;3.60;;;2.57;;
9178;SDS011;4624;48.126;11.546;2023-03-23T03:23:32;2.83;;;1.50;;
9178;SDS011;4624;48.126;11.546;2023-03-23T03:26:01;5.13;;;1.40;;
9178;SDS011;4624;48.126;11.546;2023-03-23T03:28:31;1.70;;;1.40;;
9178;SDS011;4624;48.126;11.546;2023-03-23T03:31:00;2.27;;;1.37;;
9178;SDS011;4624;48.126;11.546;2023-03-23T03:33:30;1.60;;;1.03;;
9178;SDS011;4624;48.126;11.546;2023-03-23T03:35:58;2.37;;;1.60;;
9178;SDS011;4624;48.126;11.546;2023-03-23T03:38:28;3.60;;;1.10;;
9178;SDS011;4624;48.126;11.546;2023-03-23T03:40:55;2.17;;;1.17;;
9178;SDS011;4624;48.126;11.546;2023-03-23T03:43:22;1.60;;;0.97;;
9178;SDS011;4624;48.126;11.546;2023-03-23T03:45:49;1.53;;;1.10;;
9178;SDS011;4624;48.126;11.546;2023-03-23T03:48:16;2.43;;;1.40;;
9178;SDS011;4624;48.126;11.546;2023-03-23T03:50:43;1.70;;;1.10;;
9178;SDS011;4624;48.126;11.546;2023-03-23T03:53:11;1.30;;;1.00;;
9178;SDS011;4624;48.126;11.546;2023-03-23T03:55:38;5.13;;;1.43;;
9178;SDS011;4624;48.126;11.546;2023-03-23T03:58:10;1.90;;;1.10;;
9178;SDS011;4624;48.126;11.546;2023-03-23T04:00:37;1.80;;;1.20;;
9178;SDS011;4624;48.126;11.546;2023-03-23T04:03:05;1.77;;;1.00;;
9178;SDS011;4624;48.126;11.546;2023-03-23T04:05:32;1.50;;;1.03;;
9178;SDS011;4624;48.126;11.546;2023-03-23T04:07:59;3.00;;;0.90;;
9178;SDS011;4624;48.126;11.546;2023-03-23T04:10:28;1.30;;;1.00;;
9178;SDS011;4624;48.126;11.546;2023-03-23T04:12:56;1.20;;;0.83;;
9178;SDS011;4624;48.126;11.546;2023-03-23T04:15:23;2.03;;;1.00;;
9178;SDS011;4624;48.126;11.546;2023-03-23T04:17:51;1.43;;;0.93;;
9178;SDS011;4624;48.126;11.546;2023-03-23T04:20:17;1.17;;;1.07;;
9178;SDS011;4624;48.126;11.546;2023-03-23T04:22:44;2.63;;;1.23;;
9178;SDS011;4624;48.126;11.546;2023-03-23T04:25:14;1.40;;;1.03;;
9178;SDS011;4624;48.126;11.546;2023-03-23T04:27:47;1.20;;;1.10;;
9178;SDS011;4624;48.126;11.546;2023-03-23T04:30:17;2.60;;;1.10;;
9178;SDS011;4624;48.126;11.546;2023-03-23T04:32:45;3.57;;;1.17;;
9178;SDS011;4624;48.126;11.546;2023-03-23T04:35:15;5.13;;;1.10;;
9178;SDS011;4624;48.126;11.546;2023-03-23T04:37:44;0.73;;;0.73;;
9178;SDS011;4624;48.126;11.546;2023-03-23T04:40:11;1.93;;;1.13;;
9178;SDS011;4624;48.126;11.546;2023-03-23T04:42:39;2.00;;;1.47;;
9178;SDS011;4624;48.126;11.546;2023-03-23T04:45:12;1.10;;;1.00;;
9178;SDS011;4624;48.126;11.546;2023-03-23T04:47:40;1.43;;;1.17;;
9178;SDS011;4624;48.126;11.546;2023-03-23T04:50:18;2.73;;;0.90;;
9178;SDS011;4624;48.126;11.546;2023-03-23T04:52:45;1.77;;;1.30;;
9178;SDS011;4624;48.126;11.546;2023-03-23T04:55:12;2.53;;;1.00;;
9178;SDS011;4624;48.126;11.546;2023-03-23T04:57:40;2.03;;;1.00;;
9178;SDS011;4624;48.126;11.546;2023-03-23T05:00:07;1.93;;;1.40;;
9178;SDS011;4624;48.126;11.546;2023-03-23T05:02:38;1.37;;;1.00;;
9178;SDS011;4624;48.126;11.546;2023-03-23T05:05:05;1.80;;;1.17;;
9178;SDS011;4624;48.126;11.546;2023-03-23T05:07:32;2.30;;;1.10;;
9178;SDS011;4624;48.126;11.546;2023-03-23T05:09:59;3.27;;;2.10;;
9178;SDS011;4624;48.126;11.546;2023-03-23T05:12:26;2.83;;;1.37;;
9178;SDS011;4624;48.126;11.546;2023-03-23T05:14:53;3.40;;;1.07;;
9178;SDS011;4624;48.126;11.546;2023-03-23T05:17:20;2.73;;;1.30;;
9178;SDS011;4624;48.126;11.546;2023-03-23T05:19:50;1.50;;;1.00;;
9178;SDS011;4624;48.126;11.546;2023-03-23T05:22:17;1.90;;;1.23;;
9178;SDS011;4624;48.126;11.546;2023-03-23T05:24:45;2.23;;;1.20;;
9178;SDS011;4624;48.126;11.546;2023-03-23T05:27:13;2.03;;;1.20;;
9178;SDS011;4624;48.126;11.546;2023-03-23T05:29:42;2.50;;;1.30;;
9178;SDS011;4624;48.126;11.546;2023-03-23T05:32:10;1.50;;;0.90;;
9178;SDS011;4624;48.126;11.546;2023-03-23T05:34:37;0.97;;;0.90;;
9178;SDS011;4624;48.126;11.546;2023-03-23T05:37:05;1.17;;;1.07;;
9178;SDS011;4624;48.126;11.546;2023-03-23T05:39:32;0.87;;;0.87;;
9178;SDS011;4624;48.126;11.546;2023-03-23T05:41:59;3.00;;;1.20;;
9178;SDS011;4624;48.126;11.546;2023-03-23T05:44:26;2.23;;;1.23;;
9178;SDS011;4624;48.126;11.546;2023-03-23T05:46:52;1.73;;;0.90;;
9178;SDS011;4624;48.126;11.546;2023-03-23T05:49:19;1.03;;;0.93;;
9178;SDS011;4624;48.126;11.546;2023-03-23T05:51:46;2.17;;;1.57;;
9178;SDS011;4624;48.126;11.546;2023-03-23T05:54:16;2.40;;;1.40;;
9178;SDS011;4624;48.126;11.546;2023-03-23T05:56:43;1.30;;;1.20;;
9178;SDS011;4624;48.126;11.546;2023-03-23T05:59:09;4.77;;;1.10;;
9178;SDS011;4624;48.126;11.546;2023-03-23T06:01:37;2.63;;;1.30;;
9178;SDS011;4624;48.126;11.546;2023-03-23T06:04:04;3.23;;;1.33;;
9178;SDS011;4624;48.126;11.546;2023-03-23T06:06:31;1.73;;;1.10;;
9178;SDS011;4624;48.126;11.546;2023-03-23T06:08:58;0.97;;;0.93;;
9178;SDS011;4624;48.126;11.546;2023-03-23T06:11:27;1.90;;;1.63;;
9178;SDS011;4624;48.126;11.546;2023-03-23T06:13:53;2.57;;;1.17;;
9178;SDS011;4624;48.126;11.546;2023-03-23T06:16:20;1.20;;;1.07;;
9178;SDS011;4624;48.126;11.546;2023-03-23T06:18:48;2.63;;;1.30;;
9178;SDS011;4624;48.126;11.546;2023-03-23T06:21:14;1.40;;;0.80;;
9178;SDS011;4624;48.126;11.546;2023-03-23T06:23:43;2.07;;;1.00;;
9178;SDS011;4624;48.126;11.546;2023-03-23T06:26:10;1.67;;;1.00;;
9178;SDS011;4624;48.126;11.546;2023-03-23T06:28:40;4.87;;;1.13;;
9178;SDS011;4624;48.126;11.546;2023-03-23T06:31:07;1.33;;;1.23;;
9178;SDS011;4624;48.126;11.546;2023-03-23T06:33:34;2.27;;;1.13;;
9178;SDS011;4624;48.126;11.546;2023-03-23T06:36:02;1.87;;;1.20;;
9178;SDS011;4624;48.126;11.546;2023-03-23T06:38:30;2.33;;;1.50;;
9178;SDS011;4624;48.126;11.546;2023-03-23T06:40:57;7.10;;;1.17;;
9178;SDS011;4624;48.126;11.546;2023-03-23T06:43:24;1.50;;;1.40;;
9178;SDS011;4624;48.126;11.546;2023-03-23T06:45:52;2.23;;;1.30;;
9178;SDS011;4624;48.126;11.546;2023-03-23T06:48:19;1.20;;;1.10;;
9178;SDS011;4624;48.126;11.546;2023-03-23T06:50:46;5.50;;;1.33;;
9178;SDS011;4624;48.126;11.546;2023-03-23T06:53:13;2.00;;;1.00;;
9178;SDS011;4624;48.126;11.546;2023-03-23T06:55:41;2.93;;;1.30;;
9178;SDS011;4624;48.126;11.546;2023-03-23T06:58:09;2.23;;;1.30;;
9178;SDS011;4624;48.126;11.546;2023-03-23T07:00:36;1.93;;;1.50;;
9178;SDS011;4624;48.126;11.546;2023-03-23T07:03:05;2.50;;;1.60;;
9178;SDS011;4624;48.126;11.546;2023-03-23T07:05:32;1.27;;;1.17;;
9178;SDS011;4624;48.126;11.546;2023-03-23T07:08:00;1.50;;;1.30;;
9178;SDS011;4624;48.126;11.546;2023-03-23T07:10:27;2.60;;;1.00;;
9178;SDS011;4624;48.126;11.546;2023-03-23T07:12:53;2.40;;;1.20;;
9178;SDS011;4624;48.126;11.546;2023-03-23T07:15:21;2.47;;;1.10;;
9178;SDS011;4624;48.126;11.546;2023-03-23T07:17:47;1.43;;;1.03;;
9178;SDS011;4624;48.126;11.546;2023-03-23T07:20:16;2.20;;;1.60;;
9178;SDS011;4624;48.126;11.546;2023-03-23T07:22:43;4.30;;;1.40;;
9178;SDS011;4624;48.126;11.546;2023-03-23T07:25:09;4.33;;;1.33;;
9178;SDS011;4624;48.126;11.546;2023-03-23T07:27:36;2.60;;;1.67;;
9178;SDS011;4624;48.126;11.546;2023-03-23T07:30:04;7.17;;;1.33;;
9178;SDS011;4624;48.126;11.546;2023-03-23T07:32:32;2.10;;;1.10;;
9178;SDS011;4624;48.126;11.546;2023-03-23T07:34:59;2.03;;;1.30;;
9178;SDS011;4624;48.126;11.546;2023-03-23T07:37:28;4.70;;;1.50;;
9178;SDS011;4624;48.126;11.546;2023-03-23T07:39:55;3.53;;;1.50;;
9178;SDS011;4624;48.126;11.546;2023-03-23T07:42:24;4.50;;;1.70;;
9178;SDS011;4624;48.126;11.546;2023-03-23T07:44:51;4.53;;;1.60;;
9178;SDS011;4624;48.126;11.546;2023-03-23T07:47:18;3.30;;;1.50;;
9178;SDS011;4624;48.126;11.546;2023-03-23T07:49:45;2.20;;;1.20;;
9178;SDS011;4624;48.126;11.546;2023-03-23T07:52:12;1.97;;;1.07;;
9178;SDS011;4624;48.126;11.546;2023-03-23T07:54:40;1.80;;;1.40;;
9178;SDS011;4624;48.126;11.546;2023-03-23T07:57:07;3.40;;;1.27;;
9178;SDS011;4624;48.126;11.546;2023-03-23T07:59:35;3.47;;;1.10;;
9178;SDS011;4624;48.126;11.546;2023-03-23T08:02:01;1.93;;;1.00;;
9178;SDS011;4624;48.126;11.546;2023-03-23T08:04:28;1.70;;;1.20;;
9178;SDS011;4624;48.126;11.546;2023-03-23T08:07:01;4.43;;;1.23;;
9178;SDS011;4624;48.126;11.546;2023-03-23T08:09:29;1.50;;;1.00;;
9178;SDS011;4624;48.126;11.546;2023-03-23T08:11:57;1.23;;;1.00;;
9178;SDS011;4624;48.126;11.546;2023-03-23T08:14:24;3.70;;;1.20;;
9178;SDS011;4624;48.126;11.546;2023-03-23T08:16:53;1.60;;;1.03;;
9178;SDS011;4624;48.126;11.546;2023-03-23T08:19:21;1.60;;;1.03;;
9178;SDS011;4624;48.126;11.546;2023-03-23T08:21:48;4.17;;;1.10;;
9178;SDS011;4624;48.126;11.546;2023-03-23T08:24:15;1.67;;;1.57;;
9178;SDS011;4624;48.126;11.546;2023-03-23T08:26:42;3.40;;;1.63;;
9178;SDS011;4624;48.126;11.546;2023-03-23T08:29:10;2.67;;;1.20;;
9178;SDS011;4624;48.126;11.546;2023-03-23T08:31:37;6.00;;;1.07;;
9178;SDS011;4624;48.126;11.546;2023-03-23T08:34:04;1.70;;;1.03;;
9178;SDS011;4624;48.126;11.546;2023-03-23T08:36:31;0.90;;;0.90;;
9178;SDS011;4624;48.126;11.546;2023-03-23T08:38:58;1.77;;;1.00;;
9178;SDS011;4624;48.126;11.546;2023-03-23T08:41:25;2.43;;;1.43;;
9178;SDS011;4624;48.126;11.546;2023-03-23T08:43:52;2.20;;;1.53;;
9178;SDS011;4624;48.126;11.546;2023-03-23T08:46:21;1.97;;;1.30;;
9178;SDS011;4624;48.126;11.546;2023-03-23T08:48:47;2.37;;;1.53;;
9178;SDS011;4624;48.126;11.546;2023-03-23T08:51:14;4.53;;;1.43;;
9178;SDS011;4624;48.126;11.546;2023-03-23T08:53:41;1.93;;;1.30;;
9178;SDS011;4624;48.126;11.546;2023-03-23T08:56:10;2.67;;;1.20;;
9178;SDS011;4624;48.126;11.546;2023-03-23T08:58:38;5.23;;;1.07;;
9178;SDS011;4624;48.126;11.546;2023-03-23T09:01:06;2.83;;;1.70;;
9178;SDS011;4624;48.126;11.546;2023-03-23T09:03:35;3.33;;;0.90;;
9178;SDS011;4624;48.126;11.546;2023-03-23T09:06:03;1.40;;;1.30;;
9178;SDS011;4624;48.126;11.546;2023-03-23T09:08:31;1.10;;;1.00;;
9178;SDS011;4624;48.126;11.546;2023-03-23T09:11:00;4.40;;;1.30;;
9178;SDS011;4624;48.126;11.546;2023-03-23T09:13:27;1.57;;;1.10;;
9178;SDS011;4624;48.126;11.546;2023-03-23T09:15:54;1.23;;;1.00;;
9178;SDS011;4624;48.126;11.546;2023-03-23T09:18:21;2.90;;;1.00;;
9178;SDS011;4624;48.126;11.546;2023-03-23T09:20:50;1.83;;;1.23;;
9178;SDS011;4624;48.126;11.546;2023-03-23T09:23:17;1.37;;;1.27;;
9178;SDS011;4624;48.126;11.546;2023-03-23T09:25:45;4.33;;;1.47;;
9178;SDS011;4624;48.126;11.546;2023-03-23T09:28:12;3.20;;;1.90;;
9178;SDS011;4624;48.126;11.546;2023-03-23T09:30:39;2.87;;;1.37;;
9178;SDS011;4624;48.126;11.546;2023-03-23T09:33:09;3.27;;;1.20;;
9178;SDS011;4624;48.126;11.546;2023-03-23T09:35:36;2.70;;;1.13;;
9178;SDS011;4624;48.126;11.546;2023-03-23T09:38:05;1.17;;;1.07;;
9178;SDS011;4624;48.126;11.546;2023-03-23T09:40:33;1.73;;;1.13;;
9178;SDS011;4624;48.126;11.546;2023-03-23T09:46:17;1.83;;;0.97;;
9178;SDS011;4624;48.126;11.546;2023-03-23T09:48:56;2.37;;;1.10;;
9178;SDS011;4624;48.126;11.546;2023-03-23T09:51:32;1.43;;;1.30;;
9178;SDS011;4624;48.126;11.546;2023-03-23T09:54:09;1.40;;;1.30;;
9178;SDS011;4624;48.126;11.546;2023-03-23T09:56:40;1.33;;;1.07;;
9178;SDS011;4624;48.126;11.546;2023-03-23T09:59:10;1.40;;;1.30;;
9178;SDS011;4624;48.126;11.546;2023-03-23T10:01:40;1.07;;;0.97;;
9178;SDS011;4624;48.126;11.546;2023-03-23T10:04:21;3.13;;;1.73;;
9178;SDS011;4624;48.126;11.546;2023-03-23T10:06:52;3.37;;;1.77;;
9178;SDS011;4624;48.126;11.546;2023-03-23T10:09:24;1.87;;;1.53;;
9178;SDS011;4624;48.126;11.546;2023-03-23T10:11:54;2.80;;;1.60;;
9178;SDS011;4624;48.126;11.546;2023-03-23T10:14:32;1.80;;;1.70;;
9178;SDS011;4624;48.126;11.546;2023-03-23T10:17:09;2.40;;;1.93;;
9178;SDS011;4624;48.126;11.546;2023-03-23T10:19:44;1.70;;;1.53;;
9178;SDS011;4624;48.126;11.546;2023-03-23T10:22:16;3.10;;;1.90;;
9178;SDS011;4624;48.126;11.546;2023-03-23T10:24:50;3.83;;;1.80;;
9178;SDS011;4624;48.126;11.546;2023-03-23T10:27:24;1.80;;;1.70;;
9178;SDS011;4624;48.126;11.546;2023-03-23T10:29:55;2.40;;;1.70;;
9178;SDS011;4624;48.126;11.546;2023-03-23T10:32:39;2.40;;;1.40;;
9178;SDS011;4624;48.126;11.546;2023-03-23T10:35:11;2.60;;;1.97;;
9178;SDS011;4624;48.126;11.546;2023-03-23T10:37:41;3.37;;;1.80;;
9178;SDS011;4624;48.126;11.546;2023-03-23T10:40:14;3.93;;;1.80;;
9178;SDS011;4624;48.126;11.546;2023-03-23T10:42:44;2.13;;;1.73;;
9178;SDS011;4624;48.126;11.546;2023-03-23T10:45:14;1.47;;;1.37;;
9178;SDS011;4624;48.126;11.546;2023-03-23T10:47:45;2.00;;;1.50;;
9178;SDS011;4624;48.126;11.546;2023-03-23T10:50:16;1.63;;;1.53;;
9178;SDS011;4624;48.126;11.546;2023-03-23T10:52:47;1.40;;;1.30;;
9178;SDS011;4624;48.126;11.546;2023-03-23T10:55:20;1.83;;;1.50;;
9178;SDS011;4624;48.126;11.546;2023-03-23T10:57:58;2.37;;;1.40;;
9178;SDS011;4624;48.126;11.546;2023-03-23T11:00:27;2.33;;;1.37;;
9178;SDS011;4624;48.126;11.546;2023-03-23T11:02:59;2.23;;;1.50;;
9178;SDS011;4624;48.126;11.546;2023-03-23T11:05:31;2.33;;;1.40;;
9178;SDS011;4624;48.126;11.546;2023-03-23T11:08:01;2.07;;;1.30;;
9178;SDS011;4624;48.126;11.546;2023-03-23T11:10:34;1.20;;;1.10;;
9178;SDS011;4624;48.126;11.546;2023-03-23T11:13:03;1.63;;;1.53;;
9178;SDS011;4624;48.126;11.546;2023-03-23T11:15:36;2.20;;;1.43;;
9178;SDS011;4624;48.126;11.546;2023-03-23T11:18:06;1.80;;;1.50;;
9178;SDS011;4624;48.126;11.546;2023-03-23T11:20:37;1.20;;;1.10;;
9178;SDS011;4624;48.126;11.546;2023-03-23T11:23:10;3.03;;;1.90;;
9178;SDS011;4624;48.126;11.546;2023-03-23T11:25:53;2.90;;;1.90;;
9178;SDS011;4624;48.126;11.546;2023-03-23T11:28:25;4.30;;;1.47;;
9178;SDS011;4624;48.126;11.546;2023-03-23T11:30:55;3.73;;;1.83;;
9178;SDS011;4624;48.126;11.546;2023-03-23T11:33:24;1.53;;;1.40;;
9178;SDS011;4624;48.126;11.546;2023-03-23T11:35:54;3.00;;;1.70;;
9178;SDS011;4624;48.126;11.546;2023-03-23T11:38:22;1.53;;;1.13;;
9178;SDS011;4624;48.126;11.546;2023-03-23T11:40:54;2.33;;;1.50;;
9178;SDS011;4624;48.126;11.546;2023-03-23T11:43:22;1.73;;;1.50;;
9178;SDS011;4624;48.126;11.546;2023-03-23T11:45:54;2.13;;;1.50;;
9178;SDS011;4624;48.126;11.546;2023-03-23T11:48:30;3.33;;;1.50;;
9178;SDS011;4624;48.126;11.546;2023-03-23T11:51:05;1.60;;;1.50;;
9178;SDS011;4624;48.126;11.546;2023-03-23T11:53:40;1.60;;;1.50;;
9178;SDS011;4624;48.126;11.546;2023-03-23T11:56:17;3.80;;;1.90;;
9178;SDS011;4624;48.126;11.546;2023-03-23T11:58:49;3.30;;;2.03;;
9178;SDS011;4624;48.126;11.546;2023-03-23T12:01:20;2.10;;;1.77;;
9178;SDS011;4624;48.126;11.546;2023-03-23T12:06:49;2.60;;;1.50;;
9178;SDS011;4624;48.126;11.546;2023-03-23T12:09:30;2.57;;;1.60;;
9178;SDS011;4624;48.126;11.546;2023-03-23T12:12:09;3.73;;;1.53;;
9178;SDS011;4624;48.126;11.546;2023-03-23T12:14:44;3.93;;;1.70;;
9178;SDS011;4624;48.126;11.546;2023-03-23T12:17:20;3.13;;;1.67;;
9178;SDS011;4624;48.126;11.546;2023-03-23T12:19:59;3.00;;;2.20;;
9178;SDS011;4624;48.126;11.546;2023-03-23T12:22:39;5.70;;;1.43;;
9178;SDS011;4624;48.126;11.546;2023-03-23T12:25:17;2.37;;;1.57;;
9178;SDS011;4624;48.126;11.546;2023-03-23T12:28:05;2.03;;;1.63;;
9178;SDS011;4624;48.126;11.546;2023-03-23T12:30:41;2.50;;;1.70;;
9178;SDS011;4624;48.126;11.546;2023-03-23T12:33:17;2.07;;;1.30;;
9178;SDS011;4624;48.126;11.546;2023-03-23T12:35:54;1.60;;;1.50;;
9178;SDS011;4624;48.126;11.546;2023-03-23T12:38:36;1.83;;;1.63;;
9178;SDS011;4624;48.126;11.546;2023-03-23T12:41:16;1.87;;;1.47;;
9178;SDS011;4624;48.126;11.546;2023-03-23T12:43:48;2.10;;;1.40;;
9178;SDS011;4624;48.126;11.546;2023-03-23T12:46:24;2.67;;;1.37;;
9178;SDS011;4624;48.126;11.546;2023-03-23T12:49:04;3.00;;;1.50;;
9178;SDS011;4624;48.126;11.546;2023-03-23T12:51:35;7.83;;;1.60;;
9178;SDS011;4624;48.126;11.546;2023-03-23T12:54:05;3.13;;;1.23;;
9178;SDS011;4624;48.126;11.546;2023-03-23T12:56:38;2.87;;;1.70;;
9178;SDS011;4624;48.126;11.546;2023-03-23T12:59:13;1.73;;;1.20;;
9178;SDS011;4624;48.126;11.546;2023-03-23T13:01:46;1.43;;;1.00;;
9178;SDS011;4624;48.126;11.546;2023-03-23T13:04:15;1.20;;;1.00;;
9178;SDS011;4624;48.126;11.546;2023-03-23T13:06:46;1.80;;;0.80;;
9178;SDS011;4624;48.126;11.546;2023-03-23T13:09:16;4.80;;;0.90;;
9178;SDS011;4624;48.126;11.546;2023-03-23T13:11:47;0.90;;;0.60;;
9178;SDS011;4624;48.126;11.546;2023-03-23T13:14:21;4.80;;;1.37;;
9178;SDS011;4624;48.126;11.546;2023-03-23T13:16:59;0.77;;;0.60;;
9178;SDS011;4624;48.126;11.546;2023-03-23T13:19:34;1.93;;;1.00;;
9178;SDS011;4624;48.126;11.546;2023-03-23T13:22:13;3.10;;;0.80;;
9178;SDS011;4624;48.126;11.546;2023-03-23T13:24:50;2.47;;;0.90;;
9178;SDS011;4624;48.126;11.546;2023-03-23T13:27:22;3.10;;;0.80;;
9178;SDS011;4624;48.126;11.546;2023-03-23T13:29:51;2.13;;;1.00;;
9178;SDS011;4624;48.126;11.546;2023-03-23T13:32:19;4.53;;;1.10;;
9178;SDS011;4624;48.126;11.546;2023-03-23T13:34:46;0.87;;;0.80;;
9178;SDS011;4624;48.126;11.546;2023-03-23T13:37:19;4.07;;;0.93;;
9178;SDS011;4624;48.126;11.546;2023-03-23T13:39:48;0.83;;;0.70;;
9178;SDS011;4624;48.126;11.546;2023-03-23T13:42:19;2.13;;;0.80;;
9178;SDS011;4624;48.126;11.546;2023-03-23T13:44:56;6.97;;;0.83;;
9178;SDS011;4624;48.126;11.546;2023-03-23T13:47:38;3.53;;;0.97;;
9178;SDS011;4624;48.126;11.546;2023-03-23T13:50:12;1.10;;;1.00;;
9178;SDS011;4624;48.126;11.546;2023-03-23T13:52:53;1.73;;;1.00;;
9178;SDS011;4624;48.126;11.546;2023-03-23T13:55:30;1.30;;;0.80;;
9178;SDS011;4624;48.126;11.546;2023-03-23T13:58:12;1.77;;;0.93;;
9178;SDS011;4624;48.126;11.546;2023-03-23T14:01:00;2.17;;;0.70;;
9178;SDS011;4624;48.126;11.546;2023-03-23T14:03:36;1.63;;;0.90;;
9178;SDS011;4624;48.126;11.546;2023-03-23T14:06:06;2.17;;;1.00;;
9178;SDS011;4624;48.126;11.546;2023-03-23T14:08:38;0.63;;;0.63;;
9178;SDS011;4624;48.126;11.546;2023-03-23T14:11:14;1.37;;;0.90;;
9178;SDS011;4624;48.126;11.546;2023-03-23T14:13:44;3.63;;;1.10;;
9178;SDS011;4624;48.126;11.546;2023-03-23T14:16:16;3.53;;;1.10;;
9178;SDS011;4624;48.126;11.546;2023-03-23T14:18:52;1.43;;;0.67;;
9178;SDS011;4624;48.126;11.546;2023-03-23T14:21:22;1.53;;;0.67;;
9178;SDS011;4624;48.126;11.546;2023-03-23T14:24:00;1.47;;;1.00;;
9178;SDS011;4624;48.126;11.546;2023-03-23T14:26:28;2.63;;;0.90;;
9178;SDS011;4624;48.126;11.546;2023-03-23T14:28:59;3.13;;;0.90;;
9178;SDS011;4624;48.126;11.546;2023-03-23T14:31:27;0.97;;;0.70;;
9178;SDS011;4624;48.126;11.546;2023-03-23T14:33:55;1.10;;;0.70;;
9178;SDS011;4624;48.126;11.546;2023-03-23T14:36:28;0.60;;;0.53;;
9178;SDS011;4624;48.126;11.546;2023-03-23T14:39:00;0.70;;;0.70;;
9178;SDS011;4624;48.126;11.546;2023-03-23T14:41:32;3.27;;;0.80;;
9178;SDS011;4624;48.126;11.546;2023-03-23T14:44:01;1.73;;;0.90;;
9178;SDS011;4624;48.126;11.546;2023-03-23T14:46:31;3.23;;;1.10;;
9178;SDS011;4624;48.126;11.546;2023-03-23T14:48:59;2.57;;;0.87;;
9178;SDS011;4624;48.126;11.546;2023-03-23T14:51:27;1.07;;;0.50;;
9178;SDS011;4624;48.126;11.546;2023-03-23T14:53:54;1.43;;;0.80;;
9178;SDS011;4624;48.126;11.546;2023-03-23T14:56:22;2.20;;;1.17;;
9178;SDS011;4624;48.126;11.546;2023-03-23T14:58:53;1.93;;;0.80;;
9178;SDS011;4624;48.126;11.546;2023-03-23T15:01:21;1.70;;;0.70;;
9178;SDS011;4624;48.126;11.546;2023-03-23T15:03:55;1.70;;;0.83;;
9178;SDS011;4624;48.126;11.546;2023-03-23T15:06:26;3.47;;;0.90;;
9178;SDS011;4624;48.126;11.546;2023-03-23T15:08:55;2.00;;;0.90;;
9178;SDS011;4624;48.126;11.546;2023-03-23T15:11:24;1.43;;;1.10;;
9178;SDS011;4624;48.126;11.546;2023-03-23T15:13:56;1.23;;;0.93;;
9178;SDS011;4624;48.126;11.546;2023-03-23T15:16:28;1.50;;;1.00;;
9178;SDS011;4624;48.126;11.546;2023-03-23T15:18:58;2.47;;;0.93;;
9178;SDS011;4624;48.126;11.546;2023-03-23T15:21:27;1.20;;;0.80;;
9178;SDS011;4624;48.126;11.546;2023-03-23T15:23:55;1.50;;;0.80;;
9178;SDS011;4624;48.126;11.546;2023-03-23T15:26:24;2.50;;;1.00;;
9178;SDS011;4624;48.126;11.546;2023-03-23T15:29:11;2.17;;;0.83;;
9178;SDS011;4624;48.126;11.546;2023-03-23T15:31:42;4.93;;;1.30;;